Mayo Airport
CYMA : now visible

Airfield :











YOU CAN JOIN US ON...

 
LOGIN :

Register | Disclaimer

   EN    FR    IT 

 









Legend :    VFR   Marginal VFR   IFR   Intensive IFR   Very Intensive IFR
Visi :
Ceiling :
>= 8 km
>= 3000ft
5 to 8 km
1000 to 3000 ft
1500m to 5 km
500 to 1000 ft
800 to 1500m
200 to 500 ft
< 800m
< 200 ft
Symbols :   Thunderstorms  Fog  Heavy snow  Heavy precipitations  Wind > 20 kt






- Airport Elevation : 1653 ft
- IATA code : YMA


CYMA - Mayo

CURRENT METAR :
  • 090900Z 00000KT 20SM SCT120 M29/M32 A3019 RMK AC3 SLP298

EXPIRED METARs :
  • 090800Z 00000KT 20SM BKN120 M30/M33 A3018 RMK AC5 SLP297
  • 090700Z VRB02KT 20SM FEW090 M31/M34 A3017 RMK AC2 SLP294

TAF TAF CYMA
Valid from the 09 at 06:00 until the 09 at 18:00 UTC


090538Z 0906/0918 VRB03KT P6SM FEW040
BECMG 0913/0915 02005KT RMK NXT FCST BY 091200Z



MET'MAP, your aeronautical weather chart ! - Copyright ORBIFLY December 2007 - Disclaimer

ORBIFLY MET'MAP TEAM :

Programming & Development : Alexandra Zaïnal
Concept & original design : Baudouin d'Aumeries
Assistance for programming : Marc-Olivier Méhu
Technical & hardware support : Manuel Goepfert

Contact : metmap@orbifly.com




SOURCES & CREDITS :

   NOAA       Earth
Advisory